Burlata, Spain
Current Conditions -  °F | °C
As of 12:00 AM on Friday 19 Dec 2014 (Local Time) from LEPP Reporting Station
Broken Clouds Broken Clouds  
Wind Chill: 45°   Ceiling: 2000
Heat Index: 48°   Visibility: 6mi
Dew Point: 45°   Wind: 8mph
Humidity: 87%   Direction: 310°NW
Pressure: 30.42"   Gusts: NA
Location:  42.83°N, 1.62°W
Report Text: LEPP 182300Z 31007KT 280V350 9999 BKN020 09/07 Q1030
Loading
Personal Weather Stations






























Interactive Weather Map New forecast layout! Learn more

10-Day Weather Forecast

Advertisements
Track Severe Weather on mobile